GVAC/SID METAR and TAF weather

Enter ICAO airport designator
Station Type Date Time Source
GVAC METAR 2018/12/10 18:00 UTC NOAA

GVAC 101800Z 07013KT CAVOK 26/18 Q1016 NOSIG


Station Type Date Time Source
GVAC Decoded METAR 2018/12/10 18:00 UTC NOAA

Sal, Cape Verde (GVAC) 16-44N 022-57W 55M
Dec 10, 2018 - 01:00 PM EST / 2018.12.10 1800 UTC
Wind: from the ENE (070 degrees) at 15 MPH (13 KT):0
Visibility: greater than 7 mile(s):0
Temperature: 78 F (26 C)
Dew Point: 64 F (18 C)
Relative Humidity: 61%
Pressure (altimeter): 30.00 in. Hg (1016 hPa)
ob: GVAC 101800Z 07013KT CAVOK 26/18 Q1016 NOSIG
cycle: 18

Station Type Date Time Source
GVAC TAF 2018/12/10 18:56 UTC NOAA

TAF GVAC 101700Z 1018/1124 05012KT CAVOK


Example: see airport list